Terminal Aerodrome Forecast
Issued by NWS Charleston, WV

Current Version | Previous Version | Graphics & Text | Print | Product List | Glossary On
Versions: 1 2 3 4 5 6 7 8 9 10 11 12 13 14 15 16 17 18 19 20 21 22 23 24 25
000
FTUS41 KRLX 260819 AAA
TAFPKB
TAF AMD
KPKB 260819Z 2608/2706 00000KT P6SM BKN050
     FM261400 18007KT P6SM VCTS BKN050CB
     FM270200 20007KT P6SM SHRA VCTS BKN040CB
     FM270500 20006KT 5SM SHRA BR VCTS OVC025CB=

USA.gov is the U.S. government's official web portal to all federal, state and local government web resources and services.